Gray Army Air Field
KGRF : now visible

Airfield :











YOU CAN JOIN US ON...

 
LOGIN :

Register | Disclaimer

   EN    FR    IT 

 









Legend :    VFR   Marginal VFR   IFR   Intensive IFR   Very Intensive IFR
Visi :
Ceiling :
>= 8 km
>= 3000ft
5 to 8 km
1000 to 3000 ft
1500m to 5 km
500 to 1000 ft
800 to 1500m
200 to 500 ft
< 800m
< 200 ft
Symbols :   Thunderstorms  Fog  Heavy snow  Heavy precipitations  Wind > 20 kt






- Airport Elevation : 300 ft


KGRF - Gray Army Air Field

CURRENT METAR :
  • 080658Z 00000KT 7/8SM BR OVC002 09/09 A2984 RMK AO2A SLP110 RVRNO $

EXPIRED METARs :
  • 080648Z 00000KT 3/4SM BR OVC002 09/09 A2984 RMK AO2A SLP110 RVRNO $
  • 080608Z 00000KT 3/8SM FG VV002 08/08 A2982 RMK AO2A SLP103 RVRNO $
  • 080558Z 00000KT 3/8SM FG VV001 09/09 A2981 RMK AO2A SLP099 60002 10105 20080 52016 RVRNO $
  • 080548Z 00000KT 1/2SM FG VV001 09/09 A2981 RMK AO2A SLP099 RVRNO $
  • 080538Z 19004KT 1/4SM FG VV001 09/09 A2981 RMK AO2A SLP099 RVRNO $
  • 080458Z 14004KT 3/8SM FG BKN002 OVC060 08/08 A2979 RMK AO2A SLP093 RVRNO $
  • 080448Z 15004KT 1/2SM BR BKN002 OVC011 09/09 A2979 RMK AO2A BKN V OVC SLP093 RVRNO $
  • 080438Z 00000KT 3/4SM BR OVC002 09/09 A2979 RMK AO2A VIS 5/8V1 3/8 OVC V BKN SLP093 RVRNO $

TAF TAF KGRF
Valid from the 08 at 05:00 until the 09 at 11:00 UTC


080455Z 0805/0911 VRB06KT 1800 BR OVC002 QNH2972INS
TEMPO 0810/0821 0800 FG
BECMG 0900/0901 VRB06KT 9999 NSW OVC020 QNH3014INS TX09/0821Z TN07/0905Z



MET'MAP, your aeronautical weather chart ! - Copyright ORBIFLY December 2007 - Disclaimer

ORBIFLY MET'MAP TEAM :

Programming & Development : Alexandra Zaïnal
Concept & original design : Baudouin d'Aumeries
Assistance for programming : Marc-Olivier Méhu
Technical & hardware support : Manuel Goepfert

Contact : metmap@orbifly.com




SOURCES & CREDITS :

   NOAA       Earth
Advisory